This is the latest recevied weather packets stored in our database for station/object OE3CJB-13. If no packets are shown the sender has not sent any weather packets the latest 10 day(s).
| Time | Temp. | Humidity | Pressure | Rain* | Wind** | Luminosity | Snow |
|---|---|---|---|---|---|---|---|
| 1788342365 | 25° C | 38% | 1188.2 hPa | 0 mm | - | - | - |
| 1788341481 | 24.44° C | 41% | 1187.4 hPa | 0 mm | - | - | - |
| 1788340560 | 23.33° C | 45% | 1187.6 hPa | 0 mm | - | - | - |
| 1788339647 | 23.33° C | 47% | 1186.3 hPa | 0 mm | - | - | - |
| 1788338734 | 22.22° C | 50% | 1185.5 hPa | 0 mm | - | - | - |
| 1788337824 | 21.67° C | 53% | 1186.5 hPa | 0 mm | - | - | - |
| 1788336981 | 21.11° C | 56% | 1185.6 hPa | 0 mm | - | - | - |
| 1788336047 | 20.56° C | 57% | 1184.7 hPa | 0 mm | - | - | - |
| 1788335133 | 20.56° C | 60% | 1184.9 hPa | 0 mm | - | - | - |
| 1788334221 | 19.44° C | 64% | 1184.1 hPa | 0 mm | - | - | - |
| 1788333357 | 18.89° C | 66% | 1182.5 hPa | 0 mm | - | - | - |
| 1788332447 | 18.33° C | 68% | 1180.9 hPa | 0 mm | - | - | - |
| 1788331534 | 17.78° C | 71% | 1179.9 hPa | 0 mm | - | - | - |
| 1788330622 | 17.22° C | 74% | 1179.9 hPa | 0 mm | - | - | - |
| 1788329757 | 16.67° C | 76% | 1179.1 hPa | 0 mm | - | - | - |
| 1788328848 | 16.11° C | 78% | 1179.2 hPa | 0 mm | - | - | - |
| 1788327933 | 15.56° C | 79% | 1178.3 hPa | 0 mm | - | - | - |
| 1788327021 | 15° C | 78% | 1179 hPa | 0 mm | - | - | - |
| 1788326158 | 15° C | 78% | 1179.8 hPa | 0 mm | - | - | - |
| 1788325249 | 15° C | 78% | 1179.7 hPa | 0 mm | - | - | - |
| 1788324332 | 15° C | 77% | 1179.7 hPa | 0 mm | - | - | - |
| 1788323469 | 15° C | 77% | 1180.5 hPa | 0 mm | - | - | - |
| 1788322557 | 15° C | 77% | 1180.5 hPa | 0 mm | - | - | - |
| 1788321667 | 14.44° C | 77% | 1181.2 hPa | 0 mm | - | - | - |
| 1788320733 | 15° C | 78% | 1182 hPa | 0 mm | - | - | - |
* Rain latest hour (hover to see other rain measurements)
** Current wind speed in m/s (hover to see current wind gust speed)